Time;durP1;ratioP1;P1;durP2;ratioP2;P2;SDS_P1;SDS_P2;PMS_P1;PMS_P2;Temp;Humidity;BMP_temperature;BMP_pressure;BME280_temperature;BME280_humidity;BME280_pressure;Samples;Min_cycle;Max_cycle;Signal;HPM_P1;HPM_P2
2022/07/31 10:48:31;;;;;;;1.88;1.50;;;;;;;29.60;51.41;98354.41;5109404;27;1324899;-89
2022/07/31 10:51:06;;;;;;;2.53;1.70;;;;;;;30.03;49.67;98336.16;5130311;28;20055;-90
2022/07/31 10:53:32;;;;;;;2.22;1.73;;;;;;;30.25;50.46;98348.75;5130311;28;20052;-89
2022/07/31 10:56:12;;;;;;;1.70;1.60;;;;;;;-143.85;100.00;70650.75;5119912;28;20032;-89
2022/07/31 10:58:52;;;;;;;2.47;2.28;;;;;;;-143.85;100.00;70650.75;5107968;28;20020;-87
2022/07/31 11:01:18;;;;;;;2.65;1.42;;;;;;;-143.85;100.00;70650.75;5108468;28;20024;-88
2022/07/31 11:03:47;;;;;;;3.15;1.98;;;;;;;-143.85;100.00;70650.75;5110263;28;20099;-86
2022/07/31 11:06:16;;;;;;;2.63;2.03;;;;;;;-143.85;100.00;70650.75;5109622;28;20027;-87
2022/07/31 11:08:50;;;;;;;2.35;1.58;;;;;;;-143.85;100.00;70650.75;5109761;28;20020;-88
2022/07/31 11:11:17;;;;;;;3.33;2.30;;;;;;;-143.85;100.00;70650.75;5108776;28;20063;-85
2022/07/31 11:13:56;;;;;;;3.72;2.20;;;;;;;-143.85;100.00;70650.75;5109066;28;20020;-86
2022/07/31 11:16:29;;;;;;;3.70;2.55;;;;;;;-143.85;100.00;70650.75;5109230;28;20540;-85
2022/07/31 11:19:05;;;;;;;3.40;2.55;;;;;;;-143.85;100.00;70650.75;5110829;28;20023;-89
2022/07/31 11:21:34;;;;;;;3.42;2.25;;;;;;;-143.85;100.00;70650.75;5109069;28;20081;-85
2022/07/31 11:24:01;;;;;;;3.00;2.22;;;;;;;-143.85;100.00;70650.75;5109134;28;20027;-85
2022/07/31 11:26:26;;;;;;;3.88;2.95;;;;;;;-143.85;100.00;70650.75;5110253;28;20055;-85
2022/07/31 11:28:52;;;;;;;3.63;2.75;;;;;;;-143.85;100.00;70650.75;5110069;28;20024;-86
2022/07/31 11:31:17;;;;;;;5.55;3.30;;;;;;;-143.85;100.00;70650.75;5108868;28;20463;-86
2022/07/31 11:33:45;;;;;;;4.07;3.17;;;;;;;-143.85;100.00;70650.75;5108817;28;20086;-85
2022/07/31 11:36:14;;;;;;;5.38;2.92;;;;;;;-143.85;100.00;70650.75;5108814;28;20035;-85
2022/07/31 11:38:42;;;;;;;5.78;3.28;;;;;;;-143.85;100.00;70650.75;5110187;28;20061;-86
2022/07/31 11:41:08;;;;;;;3.30;2.53;;;;;;;-143.85;100.00;70650.75;5109774;28;20024;-85
2022/07/31 11:43:36;;;;;;;4.90;2.67;;;;;;;-143.85;100.00;70650.75;5108476;28;20103;-86
2022/07/31 11:46:02;;;;;;;;;;;;;;;-143.85;100.00;70650.75;5109193;28;20463;-85
2022/07/31 11:48:30;;;;;;;3.13;2.83;;;;;;;-143.85;100.00;70650.75;5108569;28;19916;-86
2022/07/31 11:50:56;;;;;;;2.95;2.22;;;;;;;-143.85;100.00;70650.75;5109839;28;20022;-85
2022/07/31 11:53:21;;;;;;;4.95;3.25;;;;;;;-143.85;100.00;70650.75;5108817;28;20394;-87
2022/07/31 11:55:58;;;;;;;3.33;2.80;;;;;;;-143.85;100.00;70650.75;5108430;28;20030;-86
2022/07/31 11:58:26;;;;;;;5.37;3.50;;;;;;;-143.85;100.00;70650.75;5105032;28;20119;-86
2022/07/31 12:00:55;;;;;;;4.38;2.88;;;;;;;-143.85;100.00;70650.75;5095129;28;20115;-85
2022/07/31 12:03:24;;;;;;;4.20;2.83;;;;;;;-143.85;100.00;70650.75;5094709;28;20024;-86
2022/07/31 12:05:51;;;;;;;3.15;2.63;;;;;;;-143.85;100.00;70650.75;5094595;28;20020;-88
2022/07/31 12:08:17;;;;;;;5.15;3.55;;;;;;;-143.85;100.00;70650.75;5095420;28;20016;-86
2022/07/31 12:10:44;;;;;;;4.95;2.90;;;;;;;-143.85;100.00;70650.75;5094758;28;20035;-87
2022/07/31 12:13:15;;;;;;;4.22;2.83;;;;;;;-143.85;100.00;70650.75;5094637;28;20020;-87
2022/07/31 12:15:41;;;;;;;5.05;2.72;;;;;;;-143.85;100.00;70650.75;5094484;28;20031;-88
2022/07/31 12:18:07;;;;;;;4.00;2.72;;;;;;;-143.85;100.00;70650.75;5095875;28;20020;-85
2022/07/31 12:20:33;;;;;;;5.40;3.00;;;;;;;-143.85;100.00;70650.75;5094272;28;20020;-84
2022/07/31 12:23:00;;;;;;;3.75;2.80;;;;;;;-143.85;100.00;70650.75;5094138;28;20024;-88
2022/07/31 12:25:26;;;;;;;3.17;2.53;;;;;;;-143.85;100.00;70650.75;5094196;28;20028;-85
2022/07/31 12:27:53;;;;;;;4.53;3.25;;;;;;;-143.85;100.00;70650.75;5095518;28;20045;-86
2022/07/31 12:30:18;;;;;;;2.58;2.25;;;;;;;-143.85;100.00;70650.75;5095470;28;20028;-87
2022/07/31 12:32:44;;;;;;;4.28;3.05;;;;;;;-143.85;100.00;70650.75;5094385;28;20115;-89
2022/07/31 12:35:10;;;;;;;4.88;2.92;;;;;;;-143.85;100.00;70650.75;5094114;28;20559;-86
2022/07/31 12:37:48;;;;;;;5.95;2.88;;;;;;;-143.85;100.00;70650.75;5094069;28;20023;-87
2022/07/31 12:40:24;;;;;;;3.95;2.63;;;;;;;-143.85;100.00;70650.75;5095553;28;20084;-88
2022/07/31 12:42:50;;;;;;;3.95;3.08;;;;;;;-143.85;100.00;70650.75;5094108;28;20521;-90
2022/07/31 12:45:15;;;;;;;10.88;3.47;;;;;;;-143.85;100.00;70650.75;5093886;28;20027;-87
2022/07/31 12:47:41;;;;;;;4.90;3.30;;;;;;;-143.85;100.00;70650.75;5093568;28;20373;-87
2022/07/31 12:50:07;;;;;;;3.90;2.95;;;;;;;-143.85;100.00;70650.75;5093698;28;20047;-85
2022/07/31 12:52:33;;;;;;;4.05;2.80;;;;;;;-143.85;100.00;70650.75;5094212;28;20376;-85
2022/07/31 12:55:01;;;;;;;4.45;2.83;;;;;;;-143.85;100.00;70650.75;5093663;28;20016;-86
2022/07/31 12:57:27;;;;;;;8.27;3.50;;;;;;;-143.85;100.00;70650.75;5093641;28;20097;-86
2022/07/31 12:59:53;;;;;;;5.22;3.63;;;;;;;-143.85;100.00;70650.75;5093402;28;20020;-86
2022/07/31 13:02:18;;;;;;;8.07;3.53;;;;;;;-143.85;100.00;70650.75;5093758;28;20112;-85
2022/07/31 13:04:44;;;;;;;4.25;2.83;;;;;;;-143.85;100.00;70650.75;5093471;28;20026;-88
2022/07/31 13:07:09;;;;;;;5.75;3.08;;;;;;;-143.85;100.00;70650.75;5093428;28;20020;-87
2022/07/31 13:09:35;;;;;;;5.15;3.30;;;;;;;-143.85;100.00;70650.75;5093367;28;20074;-86
2022/07/31 13:12:01;;;;;;;3.80;2.88;;;;;;;-143.85;100.00;70650.75;5094369;28;20089;-85
2022/07/31 13:14:27;;;;;;;7.78;4.28;;;;;;;-143.85;100.00;70650.75;5093205;28;20077;-85
2022/07/31 13:16:53;;;;;;;6.20;3.65;;;;;;;-143.85;100.00;70650.75;5093411;28;20434;-85
2022/07/31 13:19:19;;;;;;;6.00;3.45;;;;;;;-143.85;100.00;70650.75;5093244;28;20479;-86
2022/07/31 13:21:45;;;;;;;5.72;3.08;;;;;;;-143.85;100.00;70650.75;5093266;28;20028;-87
2022/07/31 13:24:12;;;;;;;3.63;2.28;;;;;;;-143.85;100.00;70650.75;5094674;28;20023;-87
2022/07/31 13:26:39;;;;;;;5.85;2.70;;;;;;;-143.85;100.00;70650.75;5093058;28;20020;-86
2022/07/31 13:29:05;;;;;;;4.15;3.13;;;;;;;-143.85;100.00;70650.75;5093464;28;20046;-89
2022/07/31 13:31:31;;;;;;;3.47;2.63;;;;;;;-143.85;100.00;70650.75;5093138;28;20463;-88
2022/07/31 13:33:57;;;;;;;4.00;3.13;;;;;;;-143.85;100.00;70650.75;5093058;28;20027;-89
2022/07/31 13:36:23;;;;;;;4.32;2.67;;;;;;;-143.85;100.00;70650.75;5093461;28;20028;-88
2022/07/31 13:38:49;;;;;;;4.18;2.53;;;;;;;-143.85;100.00;70650.75;5092994;28;20024;-88
2022/07/31 13:41:22;;;;;;;4.13;3.08;;;;;;;-143.85;100.00;70650.75;5092432;28;20036;-86
2022/07/31 13:43:52;;;;;;;4.82;3.60;;;;;;;-143.85;100.00;70650.75;5092745;28;20020;-85
2022/07/31 13:46:18;;;;;;;5.85;3.10;;;;;;;-143.85;100.00;70650.75;5093337;28;20082;-87
2022/07/31 13:48:44;;;;;;;4.07;2.72;;;;;;;-143.85;100.00;70650.75;5094066;28;20083;-87
2022/07/31 13:51:10;;;;;;;3.38;2.40;;;;;;;-143.85;100.00;70650.75;5093047;28;20016;-87
2022/07/31 13:53:35;;;;;;;4.95;3.28;;;;;;;-143.85;100.00;70650.75;5092979;28;20390;-86
2022/07/31 13:56:00;;;;;;;5.38;2.88;;;;;;;-143.85;100.00;70650.75;5092396;28;20448;-87
2022/07/31 13:58:26;;;;;;;3.65;2.70;;;;;;;-143.85;100.00;70650.75;5092615;28;20036;-88
2022/07/31 14:00:55;;;;;;;5.32;3.47;;;;;;;-143.85;100.00;70650.75;5092478;28;20034;-85
2022/07/31 14:03:22;;;;;;;3.97;3.00;;;;;;;-143.85;100.00;70650.75;5092376;28;20019;-86
2022/07/31 14:05:48;;;;;;;6.43;3.42;;;;;;;-143.85;100.00;70650.75;5092228;28;20023;-84
2022/07/31 14:08:13;;;;;;;3.65;2.95;;;;;;;-143.85;100.00;70650.75;5091958;28;20020;-84
2022/07/31 14:10:39;;;;;;;5.60;3.08;;;;;;;-143.85;100.00;70650.75;5092074;28;20016;-84
2022/07/31 14:13:04;;;;;;;6.65;2.67;;;;;;;-143.85;100.00;70650.75;5092092;28;20108;-84
2022/07/31 14:15:30;;;;;;;5.07;3.55;;;;;;;-143.85;100.00;70650.75;5092129;28;20125;-87
2022/07/31 14:17:57;;;;;;;4.63;3.03;;;;;;;-143.85;100.00;70650.75;5092276;28;20378;-86
2022/07/31 14:20:23;;;;;;;4.33;2.83;;;;;;;-143.85;100.00;70650.75;5093585;28;20097;-89
2022/07/31 14:22:48;;;;;;;4.63;2.58;;;;;;;-143.85;100.00;70650.75;5093131;28;20467;-86
2022/07/31 14:25:14;;;;;;;4.93;3.05;;;;;;;-143.85;100.00;70650.75;5092277;28;20387;-85
2022/07/31 14:27:39;;;;;;;4.82;3.40;;;;;;;-143.85;100.00;70650.75;5093129;28;20031;-87
2022/07/31 14:30:06;;;;;;;4.55;3.40;;;;;;;-143.85;100.00;70650.75;5091820;28;20027;-85
2022/07/31 14:32:32;;;;;;;6.03;3.47;;;;;;;-143.85;100.00;70650.75;5091609;28;20028;-86
2022/07/31 14:34:57;;;;;;;4.13;2.90;;;;;;;-143.85;100.00;70650.75;5092022;28;20472;-86
2022/07/31 14:37:23;;;;;;;6.40;3.25;;;;;;;-143.85;100.00;70650.75;5092017;28;20490;-87
2022/07/31 14:39:48;;;;;;;5.65;3.28;;;;;;;-143.85;100.00;70650.75;5091766;28;20482;-84
2022/07/31 14:42:14;;;;;;;4.43;2.92;;;;;;;-143.85;100.00;70650.75;5092949;28;20073;-85
2022/07/31 14:44:40;;;;;;;6.47;3.58;;;;;;;-143.85;100.00;70650.75;5092808;28;20035;-84
2022/07/31 14:47:07;;;;;;;4.00;2.60;;;;;;;-143.85;100.00;70650.75;5092564;28;20395;-85
2022/07/31 14:49:33;;;;;;;4.53;3.40;;;;;;;-143.85;100.00;70650.75;5091770;28;20056;-85
2022/07/31 14:51:58;;;;;;;4.78;2.97;;;;;;;-143.85;100.00;70650.75;5091943;28;20066;-86
2022/07/31 14:54:24;;;;;;;5.97;4.28;;;;;;;-143.85;100.00;70650.75;5091966;28;20024;-85
2022/07/31 14:56:49;;;;;;;5.07;3.20;;;;;;;-143.85;100.00;70650.75;5091575;28;20060;-86
2022/07/31 14:59:15;;;;;;;4.72;2.92;;;;;;;-143.85;100.00;70650.75;5091593;28;20035;-86
2022/07/31 15:01:40;;;;;;;3.67;2.80;;;;;;;-143.85;100.00;70650.75;5091703;28;20021;-87
2022/07/31 15:04:06;;;;;;;4.00;2.53;;;;;;;-143.85;100.00;70650.75;5091693;28;20028;-86
2022/07/31 15:06:31;;;;;;;3.80;2.58;;;;;;;-143.85;100.00;70650.75;5091874;28;20031;-88
2022/07/31 15:08:57;;;;;;;5.28;3.33;;;;;;;-143.85;100.00;70650.75;5091921;28;20016;-88
2022/07/31 15:11:22;;;;;;;3.83;2.72;;;;;;;-143.85;100.00;70650.75;5091498;28;20027;-86
2022/07/31 15:13:48;;;;;;;6.25;2.80;;;;;;;-143.85;100.00;70650.75;5091550;28;20049;-87
2022/07/31 15:16:13;;;;;;;4.13;2.88;;;;;;;-143.85;100.00;70650.75;5091722;28;20663;-85
2022/07/31 15:18:38;;;;;;;4.95;3.03;;;;;;;-143.85;100.00;70650.75;5091624;28;20471;-86
2022/07/31 15:21:04;;;;;;;4.57;3.15;;;;;;;-143.85;100.00;70650.75;5091685;28;20103;-88
2022/07/31 15:23:29;;;;;;;6.30;3.08;;;;;;;-143.85;100.00;70650.75;5091512;28;20485;-90
2022/07/31 15:25:55;;;;;;;4.78;3.08;;;;;;;-143.85;100.00;70650.75;5091389;28;20023;-85
2022/07/31 15:28:20;;;;;;;3.63;2.42;;;;;;;-143.85;100.00;70650.75;5091179;28;20042;-85
2022/07/31 15:30:45;;;;;;;4.03;2.70;;;;;;;-143.85;100.00;70650.75;5091542;28;20463;-86
2022/07/31 15:33:11;;;;;;;4.05;2.88;;;;;;;-143.85;100.00;70650.75;5091626;28;20020;-85
2022/07/31 15:35:36;;;;;;;4.68;3.13;;;;;;;-143.85;100.00;70650.75;5095132;28;20031;-85
2022/07/31 15:38:02;;;;;;;2.50;2.30;;;;;;;-143.85;100.00;70650.75;5094977;28;20027;-86
2022/07/31 15:40:28;;;;;;;3.13;2.58;;;;;;;-143.85;100.00;70650.75;5095028;28;20523;-85
2022/07/31 15:42:53;;;;;;;2.70;2.50;;;;;;;-143.85;100.00;70650.75;5095029;28;20065;-87
2022/07/31 15:45:19;;;;;;;3.95;2.80;;;;;;;-143.85;100.00;70650.75;5094958;28;20364;-85
2022/07/31 15:47:46;;;;;;;9.00;2.90;;;;;;;-143.85;100.00;70650.75;5094498;28;20112;-86
2022/07/31 15:50:14;;;;;;;3.05;2.33;;;;;;;-143.85;100.00;70650.75;5096070;28;20027;-85
2022/07/31 15:52:40;;;;;;;2.85;2.45;;;;;;;-143.85;100.00;70650.75;5094738;28;20023;-85
2022/07/31 15:55:07;;;;;;;3.67;2.67;;;;;;;-143.85;100.00;70650.75;5094828;28;20027;-86
2022/07/31 15:57:32;;;;;;;6.20;3.45;;;;;;;-143.85;100.00;70650.75;5094729;28;20035;-84
2022/07/31 15:59:58;;;;;;;2.95;2.40;;;;;;;-143.85;100.00;70650.75;5094832;28;20020;-88
2022/07/31 16:02:24;;;;;;;3.63;2.80;;;;;;;-143.85;100.00;70650.75;5094914;28;20089;-85
2022/07/31 16:04:51;;;;;;;3.05;2.05;;;;;;;-143.85;100.00;70650.75;5094964;28;20103;-87
2022/07/31 16:07:17;;;;;;;3.47;2.40;;;;;;;-143.85;100.00;70650.75;5096096;28;20024;-86
2022/07/31 16:09:42;;;;;;;2.25;2.05;;;;;;;-143.85;100.00;70650.75;5094792;28;20027;-84
2022/07/31 16:12:08;;;;;;;3.30;2.40;;;;;;;-143.85;100.00;70650.75;5096069;28;20026;-86
2022/07/31 16:14:34;;;;;;;3.30;2.58;;;;;;;-143.85;100.00;70650.75;5095438;28;20115;-86
2022/07/31 16:16:59;;;;;;;3.67;2.55;;;;;;;-143.85;100.00;70650.75;5095425;28;20036;-89
2022/07/31 16:19:25;;;;;;;2.95;2.53;;;;;;;-143.85;100.00;70650.75;5095065;28;20487;-88
2022/07/31 16:21:53;;;;;;;3.35;2.50;;;;;;;-143.85;100.00;70650.75;5094946;28;20059;-89
2022/07/31 16:24:20;;;;;;;4.55;2.90;;;;;;;-143.85;100.00;70650.75;5095764;28;20020;-87
2022/07/31 16:26:46;;;;;;;2.45;2.13;;;;;;;-143.85;100.00;70650.75;5095849;28;20078;-89
2022/07/31 16:29:12;;;;;;;2.35;1.95;;;;;;;-143.85;100.00;70650.75;5094289;28;20059;-88
2022/07/31 16:31:37;;;;;;;3.25;2.30;;;;;;;-143.85;100.00;70650.75;5094440;28;20024;-88
2022/07/31 16:34:02;;;;;;;2.42;2.22;;;;;;;-143.85;100.00;70650.75;5094868;28;20020;-87
2022/07/31 16:36:28;;;;;;;2.67;2.03;;;;;;;-143.85;100.00;70650.75;5094255;28;20020;-87
2022/07/31 16:38:53;;;;;;;2.00;1.80;;;;;;;-143.85;100.00;70650.75;5094326;28;20044;-88
2022/07/31 16:41:19;;;;;;;2.10;1.67;;;;;;;-143.85;100.00;70650.75;5094020;28;20016;-87
2022/07/31 16:43:44;;;;;;;2.50;2.05;;;;;;;-143.85;100.00;70650.75;5094630;28;20059;-86
2022/07/31 16:46:10;;;;;;;2.47;1.85;;;;;;;-143.85;100.00;70650.75;5094342;28;20063;-87
2022/07/31 16:48:35;;;;;;;2.63;1.80;;;;;;;-143.85;100.00;70650.75;5093935;28;20373;-87
2022/07/31 16:51:02;;;;;;;1.55;1.40;;;;;;;-143.85;100.00;70650.75;5094345;28;20550;-86
2022/07/31 16:53:28;;;;;;;2.78;2.08;;;;;;;-143.85;100.00;70650.75;5094058;28;20387;-87
2022/07/31 16:55:54;;;;;;;3.25;2.15;;;;;;;-143.85;100.00;70650.75;5093736;28;20019;-88
2022/07/31 16:58:20;;;;;;;2.47;1.80;;;;;;;-143.85;100.00;70650.75;5093942;28;20431;-89
2022/07/31 17:00:46;;;;;;;2.25;1.80;;;;;;;-143.85;100.00;70650.75;5093856;28;20387;-87
2022/07/31 17:03:12;;;;;;;13.82;2.22;;;;;;;-143.85;100.00;70650.75;5094745;28;20458;-86
2022/07/31 17:05:38;;;;;;;2.95;2.20;;;;;;;-143.85;100.00;70650.75;5093441;28;20051;-86
2022/07/31 17:08:03;;;;;;;3.65;2.00;;;;;;;-143.85;100.00;70650.75;5094049;28;20086;-86
2022/07/31 17:10:29;;;;;;;3.00;2.50;;;;;;;-143.85;100.00;70650.75;5093388;28;20106;-85
2022/07/31 17:12:55;;;;;;;2.83;2.28;;;;;;;-143.85;100.00;70650.75;5093461;28;20053;-85
2022/07/31 17:15:20;;;;;;;3.53;2.20;;;;;;;-143.85;100.00;70650.75;5093332;28;20020;-85
2022/07/31 17:17:45;;;;;;;4.10;2.70;;;;;;;-143.85;100.00;70650.75;5093268;28;20479;-86
2022/07/31 17:20:11;;;;;;;3.13;1.90;;;;;;;-143.85;100.00;70650.75;5093181;28;20020;-85
2022/07/31 17:22:37;;;;;;;3.78;2.88;;;;;;;-143.85;100.00;70650.75;5092965;28;20111;-85
2022/07/31 17:25:06;;;;;;;4.10;2.25;;;;;;;-143.85;100.00;70650.75;5094091;28;20538;-84
2022/07/31 17:27:33;;;;;;;2.83;1.80;;;;;;;-143.85;100.00;70650.75;5092777;28;20020;-85
2022/07/31 17:29:59;;;;;;;2.88;2.00;;;;;;;-143.85;100.00;70650.75;5093097;28;20023;-85
2022/07/31 17:32:25;;;;;;;2.30;2.10;;;;;;;-143.85;100.00;70650.75;5092927;28;20110;-86
2022/07/31 17:34:51;;;;;;;2.60;2.03;;;;;;;-143.85;100.00;70650.75;5092799;28;20027;-85
2022/07/31 17:37:18;;;;;;;2.70;2.50;;;;;;;-143.85;100.00;70650.75;5092774;28;20024;-85
2022/07/31 17:39:44;;;;;;;2.58;2.05;;;;;;;-143.85;100.00;70650.75;5093913;28;20111;-86
2022/07/31 17:42:10;;;;;;;3.08;2.60;;;;;;;-143.85;100.00;70650.75;5092713;28;20103;-85
2022/07/31 17:44:36;;;;;;;5.38;3.25;;;;;;;-143.85;100.00;70650.75;5092537;28;20047;-85
2022/07/31 17:47:02;;;;;;;3.85;2.35;;;;;;;-143.85;100.00;70650.75;5092639;28;20131;-86
2022/07/31 17:49:28;;;;;;;3.25;2.28;;;;;;;-143.85;100.00;70650.75;5092582;28;20091;-85
2022/07/31 17:51:55;;;;;;;4.40;3.15;;;;;;;-143.85;100.00;70650.75;5093522;28;20016;-85
2022/07/31 17:54:20;;;;;;;3.10;2.43;;;;;;;-143.85;100.00;70650.75;5092351;28;20026;-85
2022/07/31 17:56:45;;;;;;;3.58;2.58;;;;;;;-143.85;100.00;70650.75;5093011;28;20394;-85
2022/07/31 17:59:11;;;;;;;3.75;2.50;;;;;;;-143.85;100.00;70650.75;5092651;28;20024;-87
2022/07/31 18:01:37;;;;;;;3.05;2.15;;;;;;;-143.85;100.00;70650.75;5092571;28;20065;-86
2022/07/31 18:04:02;;;;;;;4.93;3.00;;;;;;;-143.85;100.00;70650.75;5092451;28;20035;-85
2022/07/31 18:06:28;;;;;;;3.95;2.72;;;;;;;-143.85;100.00;70650.75;5092204;28;20035;-85
2022/07/31 18:08:54;;;;;;;6.13;3.08;;;;;;;-143.85;100.00;70650.75;5092206;28;20117;-84
2022/07/31 18:11:20;;;;;;;6.70;3.80;;;;;;;-143.85;100.00;70650.75;5093070;28;20030;-83
2022/07/31 18:13:46;;;;;;;4.47;3.30;;;;;;;-143.85;100.00;70650.75;5091667;28;20028;-82
2022/07/31 18:16:11;;;;;;;4.22;2.70;;;;;;;-143.85;100.00;70650.75;5091671;28;20016;-82
2022/07/31 18:18:37;;;;;;;4.65;3.15;;;;;;;-143.85;100.00;70650.75;5091729;28;20050;-82
2022/07/31 18:21:02;;;;;;;3.67;3.03;;;;;;;-143.85;100.00;70650.75;5091777;28;20447;-83
2022/07/31 18:23:28;;;;;;;4.22;3.00;;;;;;;-143.85;100.00;70650.75;5092833;28;20099;-83
2022/07/31 18:26:03;;;;;;;4.68;2.88;;;;;;;-143.85;100.00;70650.75;5091508;28;20085;-83
2022/07/31 18:28:32;;;;;;;23.50;10.75;;;;;;;-143.85;100.00;70650.75;5092799;28;20373;-82
2022/07/31 18:30:59;;;;;;;7.15;4.70;;;;;;;-143.85;100.00;70650.75;5092629;28;20107;-83
2022/07/31 18:33:24;;;;;;;4.22;3.30;;;;;;;-143.85;100.00;70650.75;5092846;28;20444;-83
2022/07/31 18:35:50;;;;;;;3.97;2.83;;;;;;;-143.85;100.00;70650.75;5091363;28;20119;-83
2022/07/31 18:38:15;;;;;;;5.18;3.75;;;;;;;-143.85;100.00;70650.75;5091860;28;20036;-83
2022/07/31 18:40:41;;;;;;;3.40;2.70;;;;;;;-143.85;100.00;70650.75;5091328;28;20101;-83
2022/07/31 18:43:06;;;;;;;7.32;3.20;;;;;;;-143.85;100.00;70650.75;5092629;28;20103;-83
2022/07/31 18:45:32;;;;;;;5.60;2.80;;;;;;;-143.85;100.00;70650.75;5091600;28;20425;-83
2022/07/31 18:47:57;;;;;;;4.40;3.13;;;;;;;-143.85;100.00;70650.75;5090972;28;20475;-83
2022/07/31 18:50:23;;;;;;;2.58;2.38;;;;;;;-143.85;100.00;70650.75;5092528;28;20093;-83
2022/07/31 18:52:49;;;;;;;3.75;3.22;;;;;;;-143.85;100.00;70650.75;5091874;28;20031;-83
2022/07/31 18:55:14;;;;;;;2.90;2.40;;;;;;;-143.85;100.00;70650.75;5091637;28;20016;-83
2022/07/31 18:57:40;;;;;;;5.47;3.53;;;;;;;-143.85;100.00;70650.75;5091238;28;20474;-83
2022/07/31 19:00:07;;;;;;;3.83;3.42;;;;;;;-143.85;100.00;70650.75;5091396;28;20052;-83
2022/07/31 19:02:33;;;;;;;4.22;3.20;;;;;;;-143.85;100.00;70650.75;5091110;28;20032;-82
2022/07/31 19:04:58;;;;;;;4.35;3.10;;;;;;;-143.85;100.00;70650.75;5091213;28;20076;-83
2022/07/31 19:07:27;;;;;;;3.03;2.72;;;;;;;-143.85;100.00;70650.75;5091006;28;20038;-83
2022/07/31 19:09:52;;;;;;;3.47;2.72;;;;;;;-143.85;100.00;70650.75;5094358;28;20106;-83
2022/07/31 19:12:18;;;;;;;4.45;3.05;;;;;;;-143.85;100.00;70650.75;5095272;28;20023;-83
2022/07/31 19:14:44;;;;;;;4.20;3.03;;;;;;;-143.85;100.00;70650.75;5095165;28;20112;-82
2022/07/31 19:17:11;;;;;;;3.50;2.55;;;;;;;-143.85;100.00;70650.75;5095229;28;20076;-82
2022/07/31 19:19:36;;;;;;;5.00;3.55;;;;;;;-143.85;100.00;70650.75;5095139;28;20074;-83
2022/07/31 19:22:02;;;;;;;4.40;2.70;;;;;;;-143.85;100.00;70650.75;5094851;28;20471;-83
2022/07/31 19:24:28;;;;;;;3.15;2.85;;;;;;;-143.85;100.00;70650.75;5096299;28;20024;-83
2022/07/31 19:26:54;;;;;;;3.33;2.80;;;;;;;-143.85;100.00;70650.75;5094940;28;20036;-83
2022/07/31 19:29:20;;;;;;;3.35;2.85;;;;;;;-143.85;100.00;70650.75;5094832;28;20020;-83
2022/07/31 19:31:46;;;;;;;5.25;4.10;;;;;;;-143.85;100.00;70650.75;5095022;28;20441;-83
2022/07/31 19:34:13;;;;;;;3.92;2.95;;;;;;;-143.85;100.00;70650.75;5094885;28;20023;-83
2022/07/31 19:36:39;;;;;;;3.88;3.35;;;;;;;-143.85;100.00;70650.75;5095898;28;20032;-83
2022/07/31 19:39:04;;;;;;;4.53;2.90;;;;;;;-143.85;100.00;70650.75;5094673;28;20016;-83
2022/07/31 19:41:32;;;;;;;6.45;3.80;;;;;;;-143.85;100.00;70650.75;5094723;28;20114;-83
2022/07/31 19:43:57;;;;;;;4.13;3.23;;;;;;;-143.85;100.00;70650.75;5094889;28;20016;-83
2022/07/31 19:46:23;;;;;;;3.85;2.72;;;;;;;-143.85;100.00;70650.75;5094455;28;20494;-83
2022/07/31 19:48:48;;;;;;;4.15;2.83;;;;;;;-143.85;100.00;70650.75;5094418;28;20055;-83
2022/07/31 19:51:15;;;;;;;4.90;3.40;;;;;;;-143.85;100.00;70650.75;5094575;28;20024;-83
2022/07/31 19:53:41;;;;;;;3.80;2.80;;;;;;;-143.85;100.00;70650.75;5094704;28;20383;-83
2022/07/31 19:56:07;;;;;;;5.93;3.97;;;;;;;-143.85;100.00;70650.75;5094318;28;20127;-83
2022/07/31 19:58:34;;;;;;;4.63;3.22;;;;;;;-143.85;100.00;70650.75;5094443;28;20080;-83
2022/07/31 20:01:00;;;;;;;5.05;3.30;;;;;;;-143.85;100.00;70650.75;5094365;28;20020;-83
2022/07/31 20:03:26;;;;;;;4.07;3.65;;;;;;;-143.85;100.00;70650.75;5094077;28;20121;-83
2022/07/31 20:05:51;;;;;;;4.38;3.15;;;;;;;-143.85;100.00;70650.75;5094652;28;20023;-83
2022/07/31 20:08:17;;;;;;;5.28;3.35;;;;;;;-143.85;100.00;70650.75;5094649;28;20095;-83
2022/07/31 20:10:42;;;;;;;4.78;3.17;;;;;;;-143.85;100.00;70650.75;5094073;28;20464;-83
2022/07/31 20:13:08;;;;;;;3.95;2.88;;;;;;;-143.85;100.00;70650.75;5094445;28;20020;-84
2022/07/31 20:15:33;;;;;;;4.10;3.30;;;;;;;-143.85;100.00;70650.75;5094000;28;20035;-83
2022/07/31 20:17:59;;;;;;;5.88;3.38;;;;;;;-143.85;100.00;70650.75;5093940;28;20111;-83
2022/07/31 20:20:24;;;;;;;5.13;3.47;;;;;;;-143.85;100.00;70650.75;5093428;28;20052;-83
2022/07/31 20:22:50;;;;;;;4.18;3.25;;;;;;;-143.85;100.00;70650.75;5094021;28;20016;-83
2022/07/31 20:25:15;;;;;;;5.70;3.92;;;;;;;-143.85;100.00;70650.75;5093912;28;20024;-83
2022/07/31 20:27:41;;;;;;;4.15;3.47;;;;;;;-143.85;100.00;70650.75;5093826;28;20016;-83
2022/07/31 20:30:07;;;;;;;5.07;3.53;;;;;;;-143.85;100.00;70650.75;5093788;28;20480;-82
2022/07/31 20:32:32;;;;;;;4.22;3.50;;;;;;;-143.85;100.00;70650.75;5093638;28;20020;-82
2022/07/31 20:34:58;;;;;;;5.45;3.85;;;;;;;-143.85;100.00;70650.75;5093884;28;20440;-83
2022/07/31 20:37:24;;;;;;;3.70;3.10;;;;;;;-143.85;100.00;70650.75;5095197;28;20420;-83
2022/07/31 20:39:49;;;;;;;4.82;3.05;;;;;;;-143.85;100.00;70650.75;5093577;28;20036;-83
2022/07/31 20:42:15;;;;;;;6.13;3.58;;;;;;;-143.85;100.00;70650.75;5094671;28;20027;-83
2022/07/31 20:44:41;;;;;;;5.95;3.72;;;;;;;-143.85;100.00;70650.75;5093405;28;20069;-83
2022/07/31 20:47:07;;;;;;;5.80;3.38;;;;;;;-143.85;100.00;70650.75;5094506;28;20051;-83
2022/07/31 20:49:33;;;;;;;5.15;3.33;;;;;;;-143.85;100.00;70650.75;5093475;28;20032;-82
2022/07/31 20:51:59;;;;;;;4.85;3.38;;;;;;;-143.85;100.00;70650.75;5093343;28;20059;-82
2022/07/31 20:54:24;;;;;;;5.15;3.38;;;;;;;-143.85;100.00;70650.75;5093375;28;20115;-83
2022/07/31 20:56:50;;;;;;;4.50;3.28;;;;;;;-143.85;100.00;70650.75;5093090;28;20486;-83
2022/07/31 20:59:15;;;;;;;5.05;3.55;;;;;;;-143.85;100.00;70650.75;5093377;28;20039;-83
2022/07/31 21:01:41;;;;;;;4.93;3.47;;;;;;;-143.85;100.00;70650.75;5093409;28;20027;-83
2022/07/31 21:04:08;;;;;;;4.20;3.17;;;;;;;-143.85;100.00;70650.75;5093197;28;20032;-83
2022/07/31 21:06:34;;;;;;;6.07;3.22;;;;;;;-143.85;100.00;70650.75;5093024;28;20015;-83
2022/07/31 21:08:59;;;;;;;4.47;3.15;;;;;;;-143.85;100.00;70650.75;5093401;28;20020;-83
2022/07/31 21:11:25;;;;;;;5.28;2.92;;;;;;;-143.85;100.00;70650.75;5093016;28;20074;-83
2022/07/31 21:13:50;;;;;;;6.72;3.42;;;;;;;-143.85;100.00;70650.75;5093264;28;20020;-84
2022/07/31 21:16:15;;;;;;;5.30;3.40;;;;;;;-143.85;100.00;70650.75;5094173;28;20077;-83
2022/07/31 21:18:41;;;;;;;4.38;3.25;;;;;;;-143.85;100.00;70650.75;5092992;28;20032;-83
2022/07/31 21:21:06;;;;;;;4.18;3.03;;;;;;;-143.85;100.00;70650.75;5093214;28;20433;-83
2022/07/31 21:23:32;;;;;;;5.15;3.08;;;;;;;-143.85;100.00;70650.75;5093221;28;20024;-83
2022/07/31 21:25:58;;;;;;;3.50;3.03;;;;;;;-143.85;100.00;70650.75;5094008;28;20517;-83
2022/07/31 21:28:25;;;;;;;3.85;2.67;;;;;;;-143.85;100.00;70650.75;5092565;28;20027;-83
2022/07/31 21:30:54;;;;;;;3.50;3.10;;;;;;;-143.85;100.00;70650.75;5093380;28;20020;-84
2022/07/31 21:33:21;;;;;;;3.00;2.70;;;;;;;-143.85;100.00;70650.75;5093979;28;20059;-83
2022/07/31 21:35:46;;;;;;;3.92;2.83;;;;;;;-143.85;100.00;70650.75;5093195;28;20050;-83
2022/07/31 21:38:16;;;;;;;4.93;3.67;;;;;;;-143.85;100.00;70650.75;5092527;28;20452;-83
2022/07/31 21:40:42;;;;;;;5.55;4.18;;;;;;;-143.85;100.00;70650.75;5093855;28;20051;-83
2022/07/31 21:43:08;;;;;;;4.97;3.50;;;;;;;-143.85;100.00;70650.75;5092538;28;20082;-83
2022/07/31 21:45:34;;;;;;;4.50;3.50;;;;;;;-143.85;100.00;70650.75;5092296;28;20024;-83
2022/07/31 21:48:09;;;;;;;3.90;3.28;;;;;;;-143.85;100.00;70650.75;5093563;28;20127;-83
2022/07/31 21:50:42;;;;;;;4.07;3.40;;;;;;;-143.85;100.00;70650.75;5092806;28;20111;-83
2022/07/31 21:53:07;;;;;;;4.38;3.42;;;;;;;-143.85;100.00;70650.75;5093674;28;20099;-83